createdAt,value
2023-04-26T00:01:48.806Z,3.90
2023-04-26T00:04:16.772Z,3.80
2023-04-26T00:06:45.918Z,3.80
2023-04-26T00:09:13.683Z,3.70
2023-04-26T00:11:41.589Z,3.70
2023-04-26T00:14:09.411Z,3.60
2023-04-26T00:16:38.507Z,3.60
2023-04-26T00:19:06.363Z,3.50
2023-04-26T00:21:34.175Z,3.60
2023-04-26T00:24:01.974Z,3.40
2023-04-26T00:26:30.002Z,3.40
2023-04-26T00:28:57.833Z,3.30
2023-04-26T00:31:25.672Z,3.30
2023-04-26T00:33:54.825Z,3.30
2023-04-26T00:36:22.588Z,3.20
2023-04-26T00:38:50.630Z,3.20
2023-04-26T00:41:18.807Z,3.30
2023-04-26T00:43:46.889Z,3.20
2023-04-26T00:46:14.774Z,3.20
2023-04-26T00:48:43.233Z,3.20
2023-04-26T00:51:12.977Z,3.10
2023-04-26T00:53:41.280Z,3.20
2023-04-26T00:56:10.444Z,3.20
2023-04-26T00:58:38.656Z,3.20
2023-04-26T01:01:07.799Z,3.20
2023-04-26T01:03:36.001Z,3.10
2023-04-26T01:06:03.996Z,3.00
2023-04-26T01:08:33.167Z,2.90
2023-04-26T01:11:00.991Z,2.90
2023-04-26T01:13:29.800Z,2.90
2023-04-26T01:15:57.927Z,2.90
2023-04-26T01:18:25.783Z,2.80
2023-04-26T01:20:54.003Z,2.90
2023-04-26T01:23:23.290Z,2.80
2023-04-26T01:25:51.043Z,2.80
2023-04-26T01:28:18.816Z,2.80
2023-04-26T01:30:46.691Z,2.80
2023-04-26T01:33:15.959Z,2.80
2023-04-26T01:35:43.795Z,2.70
2023-04-26T01:38:11.656Z,2.70
2023-04-26T01:40:43.849Z,2.70
2023-04-26T01:43:11.771Z,2.60
2023-04-26T01:45:39.763Z,2.60
2023-04-26T01:48:09.029Z,2.60
2023-04-26T01:50:36.819Z,2.60
2023-04-26T01:53:04.643Z,2.60
2023-04-26T01:55:32.500Z,2.50
2023-04-26T01:58:02.059Z,2.50
2023-04-26T02:00:30.236Z,2.40
2023-04-26T02:02:58.414Z,2.40
2023-04-26T02:05:26.475Z,2.40
2023-04-26T02:07:54.511Z,2.40
2023-04-26T02:10:22.456Z,2.30
2023-04-26T02:12:50.319Z,2.30
2023-04-26T02:15:19.411Z,2.30
2023-04-26T02:17:47.392Z,2.30
2023-04-26T02:20:15.565Z,2.30
2023-04-26T02:22:43.351Z,2.30
2023-04-26T02:25:11.742Z,2.20
2023-04-26T02:27:39.657Z,2.20
2023-04-26T02:30:08.149Z,2.20
2023-04-26T02:32:37.640Z,2.10
2023-04-26T02:35:06.763Z,2.10
2023-04-26T02:37:34.729Z,2.10
2023-04-26T02:40:02.435Z,2.10
2023-04-26T02:42:30.303Z,2.10
2023-04-26T02:44:58.122Z,2.10
2023-04-26T02:47:26.648Z,2.10
2023-04-26T02:49:56.008Z,2.10
2023-04-26T02:52:23.774Z,2.00
2023-04-26T02:54:52.031Z,2.00
2023-04-26T02:57:20.001Z,1.90
2023-04-26T02:59:47.702Z,1.90
2023-04-26T03:02:15.560Z,1.90
2023-04-26T03:04:43.766Z,1.90
2023-04-26T03:07:12.899Z,1.90
2023-04-26T03:09:41.043Z,1.90
2023-04-26T03:12:09.221Z,1.90
2023-04-26T03:14:37.224Z,1.80
2023-04-26T03:17:05.006Z,1.80
2023-04-26T03:19:32.917Z,1.80
2023-04-26T03:22:00.783Z,1.80
2023-04-26T03:24:29.994Z,1.80
2023-04-26T03:26:57.919Z,1.80
2023-04-26T03:29:25.704Z,1.80
2023-04-26T03:31:53.535Z,1.80
2023-04-26T03:34:21.796Z,1.80
2023-04-26T03:36:49.646Z,1.80
2023-04-26T03:39:17.849Z,1.80
2023-04-26T03:41:47.082Z,1.80
2023-04-26T03:44:15.471Z,1.80
2023-04-26T03:46:43.454Z,1.70
2023-04-26T03:49:11.422Z,1.70
2023-04-26T03:51:39.289Z,1.70
2023-04-26T03:54:07.121Z,1.70
2023-04-26T03:56:35.266Z,1.60
2023-04-26T03:59:04.512Z,1.60
2023-04-26T04:01:33.240Z,1.60
2023-04-26T04:04:01.388Z,1.60
2023-04-26T04:06:29.545Z,1.70
2023-04-26T04:08:57.697Z,1.70
2023-04-26T04:11:25.612Z,1.70
2023-04-26T04:13:53.450Z,1.70
2023-04-26T04:16:22.786Z,1.70
2023-04-26T04:18:51.019Z,1.60
2023-04-26T04:21:18.806Z,1.60
2023-04-26T04:23:46.614Z,1.70
2023-04-26T04:26:14.483Z,1.70
2023-04-26T04:28:42.660Z,1.70
2023-04-26T04:31:10.513Z,1.70
2023-04-26T04:33:39.748Z,1.70
2023-04-26T04:36:08.350Z,1.70
2023-04-26T04:38:37.364Z,1.70
2023-04-26T04:41:05.348Z,1.70
2023-04-26T04:43:33.235Z,1.70
2023-04-26T04:46:01.265Z,1.80
2023-04-26T04:48:30.259Z,1.80
2023-04-26T04:50:59.581Z,1.90
2023-04-26T04:53:27.473Z,1.90
2023-04-26T04:55:55.321Z,2.00
2023-04-26T04:58:23.210Z,2.00
2023-04-26T05:00:54.156Z,2.10
2023-04-26T05:03:22.877Z,2.10
2023-04-26T05:05:50.683Z,2.20
2023-04-26T05:08:20.007Z,2.30
2023-04-26T05:10:47.918Z,2.40
2023-04-26T05:13:15.777Z,2.40
2023-04-26T05:15:43.597Z,2.60
2023-04-26T05:18:11.486Z,2.70
2023-04-26T05:20:40.078Z,2.70
2023-04-26T05:23:07.975Z,2.80
2023-04-26T05:25:39.035Z,2.90
2023-04-26T05:28:12.475Z,3.00
2023-04-26T05:30:40.860Z,3.00
2023-04-26T05:33:08.956Z,3.10
2023-04-26T05:35:36.895Z,3.20
2023-04-26T05:38:04.970Z,3.10
2023-04-26T05:40:32.868Z,3.10
2023-04-26T05:43:02.142Z,3.10
2023-04-26T05:45:29.933Z,3.20
2023-04-26T05:47:57.883Z,3.30
2023-04-26T05:50:25.976Z,3.30
2023-04-26T05:52:53.923Z,3.30
2023-04-26T05:55:21.903Z,3.40
2023-04-26T05:57:50.037Z,3.50
2023-04-26T06:00:22.687Z,3.70
2023-04-26T06:02:50.873Z,3.80
2023-04-26T06:05:19.085Z,3.90
2023-04-26T06:07:47.109Z,4.00
2023-04-26T06:10:15.028Z,4.10
2023-04-26T06:12:42.845Z,4.20
2023-04-26T06:15:11.469Z,4.30
2023-04-26T06:17:41.656Z,4.40
2023-04-26T06:20:09.986Z,4.50
2023-04-26T06:22:37.968Z,4.60
2023-04-26T06:25:06.818Z,4.70
2023-04-26T06:27:34.772Z,4.90
2023-04-26T06:30:02.751Z,5.00
2023-04-26T06:32:30.688Z,5.20
2023-04-26T06:34:59.981Z,5.30
2023-04-26T06:37:28.831Z,5.30
2023-04-26T06:39:56.609Z,5.60
2023-04-26T06:42:24.458Z,5.70
2023-04-26T06:44:52.427Z,5.80
2023-04-26T06:47:20.651Z,5.80
2023-04-26T06:49:48.516Z,5.90
2023-04-26T06:52:18.088Z,5.90
2023-04-26T06:54:56.712Z,6.00
2023-04-26T06:57:25.051Z,6.00
2023-04-26T06:59:52.819Z,6.10
2023-04-26T07:02:20.695Z,6.30
2023-04-26T07:04:48.742Z,6.40
2023-04-26T07:07:18.524Z,6.40
2023-04-26T07:09:46.372Z,6.50
2023-04-26T07:12:14.502Z,6.50
2023-04-26T07:14:43.469Z,6.60
2023-04-26T07:17:11.432Z,6.70
2023-04-26T07:19:48.107Z,6.80
2023-04-26T07:22:16.001Z,7.00
2023-04-26T07:24:45.345Z,7.10
2023-04-26T07:27:13.114Z,7.20
2023-04-26T07:29:41.071Z,7.20
2023-04-26T07:32:09.056Z,7.30
2023-04-26T07:34:37.049Z,7.40
2023-04-26T07:37:04.868Z,7.50
2023-04-26T07:39:32.586Z,7.70
2023-04-26T07:42:01.853Z,7.80
2023-04-26T07:44:29.593Z,8.00
2023-04-26T07:46:57.440Z,8.20
2023-04-26T07:49:25.376Z,8.20
2023-04-26T07:51:53.154Z,8.20
2023-04-26T07:54:20.972Z,8.40
2023-04-26T07:56:49.007Z,8.50
2023-04-26T07:59:18.178Z,8.50
2023-04-26T08:01:46.194Z,8.40
2023-04-26T08:04:14.410Z,8.60
2023-04-26T08:06:45.104Z,8.70
2023-04-26T08:09:13.015Z,8.80
2023-04-26T08:11:42.510Z,8.90
2023-04-26T08:14:10.563Z,8.90
2023-04-26T08:16:39.883Z,8.80
2023-04-26T08:19:07.933Z,8.80
2023-04-26T08:21:35.984Z,8.80
2023-04-26T08:24:03.922Z,8.90
2023-04-26T08:26:31.898Z,8.90
2023-04-26T08:29:00.019Z,8.90
2023-04-26T08:31:28.004Z,8.90
2023-04-26T08:33:57.454Z,9.10
2023-04-26T08:36:25.357Z,9.20
2023-04-26T08:38:53.068Z,9.30
2023-04-26T08:41:23.428Z,9.20
2023-04-26T08:43:51.937Z,9.00
2023-04-26T08:46:20.762Z,8.90
2023-04-26T08:48:50.870Z,8.80
2023-04-26T08:51:20.836Z,8.60
2023-04-26T08:53:49.066Z,8.70
2023-04-26T08:56:17.196Z,8.50
2023-04-26T08:58:45.089Z,8.80
2023-04-26T09:01:15.162Z,9.00
2023-04-26T09:03:43.261Z,9.30
2023-04-26T09:06:11.826Z,9.40
2023-04-26T09:08:41.572Z,9.60
2023-04-26T09:11:09.581Z,9.90
2023-04-26T09:13:37.476Z,9.90
2023-04-26T09:16:05.592Z,9.90
2023-04-26T09:18:34.297Z,9.90
2023-04-26T09:21:06.077Z,9.80
2023-04-26T09:23:34.678Z,9.90
2023-04-26T09:26:22.663Z,10.20
2023-04-26T09:28:51.716Z,10.40
2023-04-26T09:31:36.456Z,10.60
2023-04-26T09:34:04.449Z,10.80
2023-04-26T09:36:32.402Z,10.90
2023-04-26T09:39:00.263Z,10.60
2023-04-26T09:41:42.888Z,10.50
2023-04-26T09:44:21.864Z,10.60
2023-04-26T09:46:59.896Z,10.60
2023-04-26T09:49:28.332Z,10.80
2023-04-26T09:52:05.828Z,10.90
2023-04-26T09:54:41.057Z,10.90
2023-04-26T09:57:10.363Z,10.90
2023-04-26T09:59:45.063Z,10.90
2023-04-26T10:02:17.370Z,10.50
2023-04-26T10:04:46.290Z,10.40
2023-04-26T10:07:14.391Z,10.10
2023-04-26T10:09:42.607Z,10.00
2023-04-26T10:12:12.629Z,10.10
2023-04-26T10:14:41.485Z,10.20
2023-04-26T10:17:09.295Z,10.50
2023-04-26T10:19:38.016Z,10.80
2023-04-26T10:22:06.841Z,11.20
2023-04-26T10:24:35.899Z,11.30
2023-04-26T10:27:04.332Z,11.20
2023-04-26T10:29:51.369Z,11.40
2023-04-26T10:32:20.473Z,11.30
2023-04-26T10:35:10.871Z,11.20
2023-04-26T10:37:39.049Z,11.20
2023-04-26T10:40:25.931Z,11.10
2023-04-26T10:43:14.970Z,10.90
2023-04-26T10:45:43.114Z,10.60
2023-04-26T10:48:18.963Z,10.60
2023-04-26T10:51:05.949Z,10.60
2023-04-26T10:53:34.459Z,10.50
2023-04-26T10:56:02.309Z,10.40
2023-04-26T10:58:30.726Z,10.40
2023-04-26T11:01:08.274Z,10.40
2023-04-26T11:03:38.268Z,10.50
2023-04-26T11:06:07.198Z,10.40
2023-04-26T11:08:36.648Z,10.30
2023-04-26T11:11:09.139Z,10.40
2023-04-26T11:13:37.613Z,10.40
2023-04-26T11:16:07.202Z,10.20
2023-04-26T11:18:35.738Z,10.20
2023-04-26T11:21:05.667Z,10.40
2023-04-26T11:23:33.673Z,10.70
2023-04-26T11:26:03.465Z,11.00
2023-04-26T11:28:45.017Z,10.90
2023-04-26T11:31:14.616Z,10.90
2023-04-26T11:33:42.673Z,11.00
2023-04-26T11:36:11.887Z,11.00
2023-04-26T11:38:39.663Z,10.90
2023-04-26T11:41:07.492Z,11.00
2023-04-26T11:43:36.464Z,11.00
2023-04-26T11:46:04.687Z,11.20
2023-04-26T11:48:33.624Z,11.20
2023-04-26T11:51:01.951Z,11.30
2023-04-26T11:53:40.512Z,11.50
2023-04-26T11:56:15.378Z,11.50
2023-04-26T11:58:45.392Z,11.60
2023-04-26T12:01:13.563Z,11.70
2023-04-26T12:03:42.417Z,11.60
2023-04-26T12:06:10.593Z,11.80
2023-04-26T12:08:39.700Z,12.10
2023-04-26T12:11:07.460Z,12.10
2023-04-26T12:13:35.183Z,12.40
2023-04-26T12:16:22.290Z,12.40
2023-04-26T12:18:54.191Z,12.40
2023-04-26T12:21:22.279Z,11.90
2023-04-26T12:23:51.655Z,11.80
2023-04-26T12:26:20.496Z,11.80
2023-04-26T12:28:48.267Z,11.80
2023-04-26T12:31:16.194Z,11.60
2023-04-26T12:33:44.328Z,11.70
2023-04-26T12:36:13.037Z,11.90
2023-04-26T12:38:41.188Z,12.00
2023-04-26T12:41:10.870Z,11.60
2023-04-26T12:43:38.823Z,11.40
2023-04-26T12:46:06.844Z,11.20
2023-04-26T12:48:34.976Z,11.20
2023-04-26T12:51:03.261Z,11.30
2023-04-26T12:53:31.123Z,11.30
2023-04-26T12:55:59.713Z,11.50
2023-04-26T12:58:29.168Z,11.70
2023-04-26T13:00:57.015Z,11.80
2023-04-26T13:03:25.161Z,12.00
2023-04-26T13:05:53.654Z,12.00
2023-04-26T13:08:22.833Z,12.10
2023-04-26T13:10:51.263Z,12.10
2023-04-26T13:13:21.938Z,11.90
2023-04-26T13:15:53.767Z,11.70
2023-04-26T13:18:21.887Z,11.60
2023-04-26T13:20:49.816Z,11.70
2023-04-26T13:23:17.733Z,11.60
2023-04-26T13:25:45.483Z,11.70
2023-04-26T13:28:13.894Z,11.70
2023-04-26T13:30:42.324Z,11.60
2023-04-26T13:33:11.769Z,11.40
2023-04-26T13:35:39.762Z,11.60
2023-04-26T13:38:08.017Z,11.70
2023-04-26T13:40:35.970Z,11.70
2023-04-26T13:43:03.968Z,11.90
2023-04-26T13:45:35.913Z,11.90
2023-04-26T13:48:04.075Z,12.00
2023-04-26T13:50:33.346Z,12.00
2023-04-26T13:53:01.773Z,11.80
2023-04-26T13:55:29.907Z,11.80
2023-04-26T13:57:57.972Z,11.80
2023-04-26T14:00:26.055Z,11.80
2023-04-26T14:02:54.121Z,11.80
2023-04-26T14:05:23.651Z,11.70
2023-04-26T14:07:54.908Z,11.70
2023-04-26T14:10:22.960Z,11.60
2023-04-26T14:12:50.846Z,11.50
2023-04-26T14:15:18.751Z,11.50
2023-04-26T14:17:47.011Z,11.40
2023-04-26T14:20:15.034Z,11.50
2023-04-26T14:22:42.840Z,11.60
2023-04-26T14:25:12.084Z,11.50
2023-04-26T14:27:40.570Z,11.60
2023-04-26T14:30:08.886Z,11.70
2023-04-26T14:32:36.816Z,11.60
2023-04-26T14:35:04.978Z,11.60
2023-04-26T14:37:32.757Z,11.50
2023-04-26T14:40:01.093Z,11.50
2023-04-26T14:42:30.509Z,11.50
2023-04-26T14:44:59.496Z,11.60
2023-04-26T14:47:27.465Z,11.70
2023-04-26T14:49:55.516Z,11.70
2023-04-26T14:52:26.970Z,11.70
2023-04-26T14:54:54.849Z,11.60
2023-04-26T14:57:22.758Z,11.50
2023-04-26T14:59:52.264Z,11.50
2023-04-26T15:02:20.073Z,11.50
2023-04-26T15:04:48.367Z,11.60
2023-04-26T15:07:28.724Z,11.60
2023-04-26T15:10:00.392Z,11.60
2023-04-26T15:12:28.226Z,11.60
2023-04-26T15:14:57.477Z,11.50
2023-04-26T15:17:25.463Z,11.30
2023-04-26T15:19:53.415Z,11.40
2023-04-26T15:22:21.435Z,11.50
2023-04-26T15:24:51.173Z,11.50
2023-04-26T15:27:19.238Z,11.50
2023-04-26T15:29:47.201Z,11.40
2023-04-26T15:32:16.332Z,11.40
2023-04-26T15:34:45.151Z,11.20
2023-04-26T15:37:13.050Z,11.40
2023-04-26T15:39:41.130Z,11.50
2023-04-26T15:42:09.191Z,11.50
2023-04-26T15:44:37.035Z,11.40
2023-04-26T15:47:05.298Z,11.50
2023-04-26T15:49:34.567Z,11.70
2023-04-26T15:52:02.413Z,11.60
2023-04-26T15:54:30.687Z,11.70
2023-04-26T15:56:58.942Z,11.70
2023-04-26T15:59:26.942Z,11.70
2023-04-26T16:01:54.921Z,11.60
2023-04-26T16:04:23.445Z,11.60
2023-04-26T16:06:53.033Z,11.50
2023-04-26T16:09:25.358Z,11.50
2023-04-26T16:11:53.802Z,11.50
2023-04-26T16:14:22.396Z,11.30
2023-04-26T16:16:50.226Z,11.30
2023-04-26T16:19:18.436Z,11.40
2023-04-26T16:21:47.120Z,11.40
2023-04-26T16:24:16.719Z,11.40
2023-04-26T16:26:44.733Z,11.50
2023-04-26T16:29:12.684Z,11.50
2023-04-26T16:31:40.896Z,11.50
2023-04-26T16:34:08.809Z,11.40
2023-04-26T16:36:36.770Z,11.30
2023-04-26T16:39:04.736Z,11.40
2023-04-26T16:41:34.605Z,11.30
2023-04-26T16:44:05.766Z,11.30
2023-04-26T16:46:33.799Z,11.30
2023-04-26T16:49:01.756Z,11.40
2023-04-26T16:51:29.826Z,11.10
2023-04-26T16:53:57.888Z,11.00
2023-04-26T16:56:25.760Z,11.00
2023-04-26T16:58:54.993Z,10.90
2023-04-26T17:01:22.944Z,10.90
2023-04-26T17:03:51.991Z,10.90
2023-04-26T17:06:20.105Z,10.90
2023-04-26T17:08:48.551Z,10.90
2023-04-26T17:11:16.641Z,10.90
2023-04-26T17:13:45.075Z,10.90
2023-04-26T17:16:14.553Z,10.90
2023-04-26T17:18:42.812Z,10.90
2023-04-26T17:21:10.895Z,10.80
2023-04-26T17:23:38.742Z,10.80
2023-04-26T17:26:06.892Z,10.80
2023-04-26T17:28:34.826Z,10.80
2023-04-26T17:31:03.719Z,10.80
2023-04-26T17:33:32.853Z,10.80
2023-04-26T17:36:01.880Z,10.80
2023-04-26T17:38:29.691Z,10.80
2023-04-26T17:40:57.496Z,10.80
2023-04-26T17:43:25.382Z,10.80
2023-04-26T17:45:53.568Z,10.80
2023-04-26T17:48:21.352Z,10.80
2023-04-26T17:50:51.260Z,10.80
2023-04-26T17:53:19.531Z,10.70
2023-04-26T17:55:47.561Z,10.60
2023-04-26T17:58:15.387Z,10.60
2023-04-26T18:00:43.213Z,10.50
2023-04-26T18:03:12.242Z,10.50
2023-04-26T18:05:40.451Z,10.40
2023-04-26T18:08:09.944Z,10.40
2023-04-26T18:10:37.936Z,10.40
2023-04-26T18:13:05.969Z,10.40
2023-04-26T18:15:34.027Z,10.30
2023-04-26T18:18:05.459Z,10.30
2023-04-26T18:20:33.583Z,10.40
2023-04-26T18:23:01.483Z,10.20
2023-04-26T18:25:30.828Z,10.20
2023-04-26T18:27:58.792Z,10.20
2023-04-26T18:30:26.965Z,10.20
2023-04-26T18:32:55.000Z,10.20
2023-04-26T18:35:23.104Z,10.10
2023-04-26T18:37:51.270Z,10.10
2023-04-26T18:40:19.184Z,10.00
2023-04-26T18:42:48.692Z,9.90
2023-04-26T18:45:16.957Z,9.90
2023-04-26T18:47:45.196Z,9.80
2023-04-26T18:50:12.998Z,9.80
2023-04-26T18:52:41.317Z,9.80
2023-04-26T18:55:09.720Z,9.80
2023-04-26T18:57:37.872Z,9.80
2023-04-26T19:00:08.361Z,9.80
2023-04-26T19:02:40.177Z,9.70
2023-04-26T19:05:10.078Z,9.70
2023-04-26T19:07:38.119Z,9.40
2023-04-26T19:10:07.115Z,9.60
2023-04-26T19:12:35.113Z,9.50
2023-04-26T19:15:02.856Z,9.50
2023-04-26T19:17:33.501Z,9.50
2023-04-26T19:20:01.428Z,9.50
2023-04-26T19:22:29.239Z,9.40
2023-04-26T19:24:57.330Z,9.40
2023-04-26T19:27:25.637Z,9.40
2023-04-26T19:29:53.588Z,9.40
2023-04-26T19:32:22.952Z,9.40
2023-04-26T19:34:52.309Z,9.30
2023-04-26T19:37:20.262Z,9.40
2023-04-26T19:39:48.152Z,9.30
2023-04-26T19:42:16.090Z,9.20
2023-04-26T19:44:43.909Z,9.20
2023-04-26T19:47:11.814Z,9.20
2023-04-26T19:49:39.648Z,9.20
2023-04-26T19:52:08.801Z,9.10
2023-04-26T19:54:37.526Z,9.10
2023-04-26T19:57:05.352Z,9.10
2023-04-26T19:59:33.105Z,9.10
2023-04-26T20:02:04.274Z,9.00
2023-04-26T20:04:32.199Z,9.00
2023-04-26T20:07:00.031Z,8.90
2023-04-26T20:09:29.323Z,8.90
2023-04-26T20:12:00.212Z,8.80
2023-04-26T20:14:30.315Z,8.80
2023-04-26T20:17:02.271Z,8.80
2023-04-26T20:19:30.636Z,8.70
2023-04-26T20:21:58.604Z,8.70
2023-04-26T20:24:27.852Z,8.70
2023-04-26T20:26:57.089Z,8.70
2023-04-26T20:29:24.990Z,8.70
2023-04-26T20:31:52.920Z,8.70
2023-04-26T20:34:20.913Z,8.70
2023-04-26T20:36:48.730Z,8.60
2023-04-26T20:39:16.507Z,8.60
2023-04-26T20:41:44.353Z,8.50
2023-04-26T20:44:13.707Z,8.50
2023-04-26T20:46:41.384Z,8.50
2023-04-26T20:49:09.426Z,8.40
2023-04-26T20:51:37.403Z,8.40
2023-04-26T20:54:05.120Z,8.40
2023-04-26T20:56:32.940Z,8.40
2023-04-26T20:59:01.034Z,8.20
2023-04-26T21:01:30.652Z,8.20
2023-04-26T21:03:58.599Z,8.20
2023-04-26T21:06:27.213Z,8.20
2023-04-26T21:08:55.141Z,8.10
2023-04-26T21:11:23.004Z,8.10
2023-04-26T21:13:50.943Z,8.00
2023-04-26T21:16:18.727Z,7.90
2023-04-26T21:18:47.979Z,7.90
2023-04-26T21:21:15.887Z,7.80
2023-04-26T21:23:43.681Z,7.80
2023-04-26T21:26:11.526Z,7.80
2023-04-26T21:28:39.742Z,7.70
2023-04-26T21:31:08.692Z,7.70
2023-04-26T21:33:36.999Z,7.60
2023-04-26T21:36:06.999Z,7.60
2023-04-26T21:38:34.824Z,7.50
2023-04-26T21:41:02.705Z,7.40
2023-04-26T21:43:30.628Z,7.40
2023-04-26T21:45:58.792Z,7.30
2023-04-26T21:48:27.201Z,7.20
2023-04-26T21:50:55.134Z,7.10
2023-04-26T21:53:24.290Z,7.10
2023-04-26T21:55:53.058Z,7.00
2023-04-26T21:58:21.042Z,7.00
2023-04-26T22:00:48.875Z,6.90
2023-04-26T22:03:17.368Z,6.80
2023-04-26T22:05:45.420Z,6.80
2023-04-26T22:08:13.147Z,6.80
2023-04-26T22:10:42.211Z,6.70
2023-04-26T22:13:09.951Z,6.70
2023-04-26T22:15:37.691Z,6.60
2023-04-26T22:18:05.656Z,6.60
2023-04-26T22:20:33.794Z,6.60
2023-04-26T22:23:01.523Z,6.60
2023-04-26T22:25:29.551Z,6.50
2023-04-26T22:27:58.733Z,6.40
2023-04-26T22:30:26.526Z,6.40
2023-04-26T22:32:55.607Z,6.40
2023-04-26T22:35:23.792Z,6.30
2023-04-26T22:37:51.964Z,6.30
2023-04-26T22:40:20.106Z,6.30
2023-04-26T22:42:48.057Z,6.20
2023-04-26T22:45:17.417Z,6.20
2023-04-26T22:47:45.299Z,6.10
2023-04-26T22:50:13.121Z,6.10
2023-04-26T22:52:41.016Z,6.10
2023-04-26T22:55:09.339Z,6.10
2023-04-26T22:57:37.466Z,6.10
2023-04-26T23:00:05.686Z,6.10
2023-04-26T23:02:34.936Z,6.00
2023-04-26T23:05:04.023Z,6.00
2023-04-26T23:07:33.939Z,6.00
2023-04-26T23:10:01.771Z,5.90
2023-04-26T23:12:29.529Z,5.90
2023-04-26T23:14:57.569Z,5.80
2023-04-26T23:17:25.711Z,5.80
2023-04-26T23:19:54.932Z,5.70
2023-04-26T23:22:22.726Z,5.70
2023-04-26T23:24:50.757Z,5.60
2023-04-26T23:27:18.849Z,5.60
2023-04-26T23:29:46.575Z,5.60
2023-04-26T23:32:14.427Z,5.60
2023-04-26T23:34:42.193Z,5.60
2023-04-26T23:37:11.314Z,5.70
2023-04-26T23:39:39.032Z,5.70
